CYUT

Repulse Bay Airport

Repulse Bay, Canada
METAR CYUT 191500Z 36007KT 320V020 25SM SKC M34/M37 A3002 RMK SLP173
Observed Flight Rules
Jan-19 @ 15:00 UTC (32 minutes ago) Visual Flight Rules
Wind Visibility Clouds
360° at 7 knots 25 miles
  • Clear skies
Temperatures Readings
Current -34°C / -29°F
Dewpoint -37°C / -35°F
Humidity 74%
Altimeter 30.02" Hg
Pressure 1017.3 hPa
Elevation 24
METAR CYUT 191500Z 36007KT 320V020 25SM SKC M34/M37 A3002 RMK SLP173
Observed Flight Rules
Jan-19 @ 15:00 UTC
(32 minutes ago)
VFR
Wind Visibility
360° at 7 knots 25 miles
Clouds
  • Clear skies
Temperature Dewpoint
-34°C / -29°F -37°C / -35°F
Humidity Altimeter Pressure
74% 30.02" Hg 1017.3 hPa